createdAt,value
2016-04-28T00:00:10.478Z,0
2016-04-28T00:01:10.450Z,0
2016-04-28T00:02:10.421Z,0
2016-04-28T00:03:10.407Z,0
2016-04-28T00:04:10.224Z,0
2016-04-28T00:05:10.367Z,0
2016-04-28T00:06:10.307Z,0
2016-04-28T00:07:10.277Z,0
2016-04-28T00:08:10.266Z,0
2016-04-28T00:09:10.221Z,0
2016-04-28T00:10:10.192Z,0
2016-04-28T00:11:10.835Z,0
2016-04-28T00:12:09.401Z,0
2016-04-28T00:13:09.373Z,0
2016-04-28T00:14:10.079Z,0
2016-04-28T00:15:10.049Z,0
2016-04-28T00:16:10.005Z,0
2016-04-28T00:17:09.977Z,0
2016-04-28T00:18:09.979Z,0
2016-04-28T00:19:09.920Z,0
2016-04-28T00:20:09.937Z,0
2016-04-28T00:21:09.878Z,0
2016-04-28T00:22:09.850Z,0
2016-04-28T00:23:09.821Z,0
2016-04-28T00:24:09.777Z,0
2016-04-28T00:25:09.748Z,0
2016-04-28T00:26:12.626Z,0
2016-04-28T00:27:09.692Z,0
2016-04-28T00:28:09.663Z,0
2016-04-28T00:29:09.633Z,0
2016-04-28T00:30:09.606Z,0
2016-04-28T00:31:09.577Z,0
2016-04-28T00:32:09.549Z,0
2016-04-28T00:33:09.519Z,0
2016-04-28T00:34:09.491Z,0
2016-04-28T00:35:09.478Z,0
2016-04-28T00:36:09.434Z,0
2016-04-28T00:37:09.405Z,0
2016-04-28T00:38:09.377Z,0
2016-04-28T00:39:09.349Z,0
2016-04-28T00:40:09.320Z,0
2016-04-28T00:41:09.291Z,0
2016-04-28T00:42:09.262Z,0
2016-04-28T00:43:09.235Z,0
2016-04-28T00:44:09.206Z,0
2016-04-28T00:45:09.177Z,0
2016-04-28T00:46:09.148Z,0
2016-04-28T00:47:09.120Z,0
2016-04-28T00:48:09.092Z,0
2016-04-28T00:49:09.062Z,0
2016-04-28T00:50:09.065Z,0
2016-04-28T00:51:09.006Z,0
2016-04-28T00:52:08.978Z,0
2016-04-28T00:53:08.948Z,0
2016-04-28T00:54:08.920Z,0
2016-04-28T00:55:08.907Z,0
2016-04-28T00:56:09.066Z,0
2016-04-28T00:57:09.272Z,0
2016-04-28T00:58:08.806Z,0
2016-04-28T00:59:08.777Z,0
2016-04-28T01:00:08.733Z,0
2016-04-28T01:01:08.720Z,0
2016-04-28T01:02:08.675Z,0
2016-04-28T01:03:08.647Z,0
2016-04-28T01:04:08.619Z,0
2016-04-28T01:05:08.591Z,0
2016-04-28T01:06:08.561Z,0
2016-04-28T01:07:08.533Z,0
2016-04-28T01:08:08.535Z,0
2016-04-28T01:09:08.476Z,0
2016-04-28T01:10:08.447Z,0
2016-04-28T01:11:08.184Z,0
2016-04-28T01:12:10.921Z,0
2016-04-28T01:13:08.362Z,0
2016-04-28T01:14:08.349Z,0
2016-04-28T01:15:08.304Z,0
2016-04-28T01:16:08.276Z,0
2016-04-28T01:17:08.248Z,0
2016-04-28T01:18:08.219Z,0
2016-04-28T01:19:08.190Z,0
2016-04-28T01:20:08.162Z,0
2016-04-28T01:21:08.133Z,0
2016-04-28T01:22:08.104Z,0
2016-04-28T01:23:08.076Z,0
2016-04-28T01:24:08.047Z,0
2016-04-28T01:25:08.019Z,0
2016-04-28T01:26:07.694Z,0
2016-04-28T01:27:07.962Z,0
2016-04-28T01:28:07.933Z,0
2016-04-28T01:29:07.889Z,0
2016-04-28T01:30:07.876Z,0
2016-04-28T01:31:07.848Z,0
2016-04-28T01:32:07.835Z,0
2016-04-28T01:33:07.790Z,0
2016-04-28T01:34:07.761Z,0
2016-04-28T01:35:07.764Z,0
2016-04-28T01:36:07.689Z,0
2016-04-28T01:37:07.676Z,0
2016-04-28T01:38:07.633Z,0
2016-04-28T01:39:07.619Z,0
2016-04-28T01:40:07.575Z,0
2016-04-28T01:41:08.468Z,0
2016-04-28T01:42:07.408Z,0
2016-04-28T01:43:07.490Z,0
2016-04-28T01:44:07.477Z,0
2016-04-28T01:45:07.432Z,0
2016-04-28T01:46:07.403Z,0
2016-04-28T01:47:07.376Z,0
2016-04-28T01:48:07.362Z,0
2016-04-28T01:49:07.318Z,0
2016-04-28T01:50:07.289Z,0
2016-04-28T01:51:06.543Z,0
2016-04-28T01:52:07.248Z,0
2016-04-28T01:53:07.219Z,0
2016-04-28T01:54:07.176Z,0
2016-04-28T01:55:07.162Z,0
2016-04-28T01:56:07.040Z,0
2016-04-28T01:57:07.605Z,0
2016-04-28T01:58:07.076Z,0
2016-04-28T01:59:07.016Z,0
2016-04-28T02:00:07.004Z,0
2016-04-28T02:01:06.975Z,0
2016-04-28T02:02:06.946Z,0
2016-04-28T02:03:06.919Z,0
2016-04-28T02:04:06.889Z,0
2016-04-28T02:05:06.877Z,0
2016-04-28T02:06:06.676Z,0
2016-04-28T02:07:06.804Z,0
2016-04-28T02:08:06.760Z,0
2016-04-28T02:09:06.763Z,0
2016-04-28T02:10:06.718Z,0
2016-04-28T02:11:08.174Z,0
2016-04-28T02:12:08.224Z,0
2016-04-28T02:13:06.632Z,0
2016-04-28T02:14:06.588Z,0
2016-04-28T02:15:06.606Z,0
2016-04-28T02:16:06.547Z,0
2016-04-28T02:17:06.518Z,0
2016-04-28T02:18:06.474Z,0
2016-04-28T02:19:06.462Z,0
2016-04-28T02:20:06.276Z,0
2016-04-28T02:21:06.404Z,0
2016-04-28T02:22:06.375Z,0
2016-04-28T02:23:06.368Z,0
2016-04-28T02:24:06.324Z,0
2016-04-28T02:25:06.296Z,0
2016-04-28T02:26:06.626Z,0
2016-04-28T02:27:06.223Z,0
2016-04-28T02:28:06.194Z,0
2016-04-28T02:29:06.166Z,0
2016-04-28T02:30:06.137Z,0
2016-04-28T02:31:06.109Z,0
2016-04-28T02:32:06.095Z,0
2016-04-28T02:33:06.051Z,0
2016-04-28T02:34:05.304Z,0
2016-04-28T02:35:05.994Z,0
2016-04-28T02:36:05.967Z,0
2016-04-28T02:37:05.937Z,0
2016-04-28T02:38:05.909Z,0
2016-04-28T02:39:05.880Z,0
2016-04-28T02:40:05.866Z,0
2016-04-28T02:41:05.651Z,0
2016-04-28T02:42:07.217Z,0
2016-04-28T02:43:05.781Z,0
2016-04-28T02:44:05.721Z,0
2016-04-28T02:45:05.709Z,0
2016-04-28T02:46:05.680Z,0
2016-04-28T02:47:05.652Z,0
2016-04-28T02:48:05.638Z,0
2016-04-28T02:49:05.595Z,0
2016-04-28T02:50:05.566Z,0
2016-04-28T02:51:05.537Z,0
2016-04-28T02:52:05.509Z,0
2016-04-28T02:53:05.479Z,0
2016-04-28T02:54:05.452Z,0
2016-04-28T02:55:05.407Z,0
2016-04-28T02:56:06.004Z,0
2016-04-28T02:57:05.710Z,0
2016-04-28T02:58:05.337Z,0
2016-04-28T02:59:05.324Z,0
2016-04-28T03:00:05.295Z,0
2016-04-28T03:01:05.252Z,0
2016-04-28T03:02:05.223Z,0
2016-04-28T03:03:05.195Z,0
2016-04-28T03:04:05.166Z,0
2016-04-28T03:05:05.122Z,0
2016-04-28T03:06:05.109Z,0
2016-04-28T03:07:05.080Z,0
2016-04-28T03:08:05.052Z,0
2016-04-28T03:09:05.023Z,0
2016-04-28T03:10:04.995Z,0
2016-04-28T03:11:06.013Z,0
2016-04-28T03:12:05.531Z,0
2016-04-28T03:13:04.909Z,0
2016-04-28T03:14:04.880Z,0
2016-04-28T03:15:04.852Z,0
2016-04-28T03:16:04.824Z,0
2016-04-28T03:17:04.794Z,0
2016-04-28T03:18:04.750Z,0
2016-04-28T03:19:04.738Z,0
2016-04-28T03:20:04.709Z,0
2016-04-28T03:21:04.680Z,0
2016-04-28T03:22:04.652Z,0
2016-04-28T03:23:04.624Z,0
2016-04-28T03:24:04.595Z,0
2016-04-28T03:25:04.566Z,0
2016-04-28T03:26:05.116Z,0
2016-04-28T03:27:04.978Z,0
2016-04-28T03:28:04.465Z,0
2016-04-28T03:29:04.451Z,0
2016-04-28T03:30:04.424Z,0
2016-04-28T03:31:04.395Z,0
2016-04-28T03:32:04.367Z,0
2016-04-28T03:33:04.337Z,0
2016-04-28T03:34:04.309Z,0
2016-04-28T03:35:04.281Z,0
2016-04-28T03:36:04.252Z,0
2016-04-28T03:37:04.223Z,0
2016-04-28T03:38:04.211Z,0
2016-04-28T03:39:04.167Z,0
2016-04-28T03:40:04.138Z,0
2016-04-28T03:41:04.952Z,0
2016-04-28T03:42:05.362Z,0
2016-04-28T03:43:04.052Z,0
2016-04-28T03:44:04.008Z,0
2016-04-28T03:45:03.994Z,0
2016-04-28T03:46:03.967Z,0
2016-04-28T03:47:03.938Z,0
2016-04-28T03:48:03.924Z,0
2016-04-28T03:49:03.881Z,0
2016-04-28T03:50:03.868Z,0
2016-04-28T03:51:03.824Z,0
2016-04-28T03:52:03.795Z,0
2016-04-28T03:53:03.766Z,0
2016-04-28T03:54:03.738Z,0
2016-04-28T03:55:03.724Z,0
2016-04-28T03:56:04.618Z,0
2016-04-28T03:57:04.590Z,0
2016-04-28T03:58:03.640Z,0
2016-04-28T03:59:03.595Z,0
2016-04-28T04:00:03.567Z,0
2016-04-28T04:01:03.538Z,0
2016-04-28T04:02:03.510Z,5
2016-04-28T04:03:03.543Z,5
2016-04-28T04:04:03.468Z,0
2016-04-28T04:05:03.440Z,5
2016-04-28T04:06:03.411Z,5
2016-04-28T04:07:03.367Z,10
2016-04-28T04:08:03.338Z,10
2016-04-28T04:09:03.325Z,10
2016-04-28T04:10:03.297Z,10
2016-04-28T04:11:04.503Z,10
2016-04-28T04:12:04.645Z,15
2016-04-28T04:13:03.211Z,15
2016-04-28T04:14:03.167Z,15
2016-04-28T04:15:03.138Z,15
2016-04-28T04:16:03.125Z,20
2016-04-28T04:17:03.097Z,20
2016-04-28T04:18:03.069Z,20
2016-04-28T04:19:03.024Z,20
2016-04-28T04:20:03.010Z,20
2016-04-28T04:21:02.967Z,20
2016-04-28T04:22:02.938Z,20
2016-04-28T04:23:02.925Z,25
2016-04-28T04:24:02.881Z,35
2016-04-28T04:25:02.853Z,40
2016-04-28T04:26:02.840Z,45
2016-04-28T04:27:02.718Z,45
2016-04-28T04:28:02.767Z,55
2016-04-28T04:29:02.738Z,60
2016-04-28T04:30:02.710Z,60
2016-04-28T04:31:02.696Z,65
2016-04-28T04:32:02.653Z,70
2016-04-28T04:33:02.624Z,75
2016-04-28T04:34:02.595Z,80
2016-04-28T04:35:02.426Z,85
2016-04-28T04:36:02.538Z,90
2016-04-28T04:37:02.526Z,100
2016-04-28T04:38:02.481Z,105
2016-04-28T04:39:02.453Z,110
2016-04-28T04:40:02.440Z,120
2016-04-28T04:41:02.505Z,120
2016-04-28T04:42:03.836Z,120
2016-04-28T04:43:02.353Z,120
2016-04-28T04:44:02.341Z,115
2016-04-28T04:45:02.266Z,100
2016-04-28T04:46:01.534Z,100
2016-04-28T04:47:02.224Z,95
2016-04-28T04:48:02.227Z,90
2016-04-28T04:49:02.183Z,85
2016-04-28T04:50:02.154Z,85
2016-04-28T04:51:02.125Z,85
2016-04-28T04:52:02.097Z,85
2016-04-28T04:53:02.069Z,70
2016-04-28T04:54:02.040Z,80
2016-04-28T04:55:01.996Z,80
2016-04-28T04:56:01.983Z,80
2016-04-28T04:57:02.095Z,90
2016-04-28T04:58:01.926Z,110
2016-04-28T04:59:01.896Z,125
2016-04-28T05:00:01.869Z,140
2016-04-28T05:01:01.840Z,160
2016-04-28T05:02:01.812Z,195
2016-04-28T05:03:01.782Z,210
2016-04-28T05:04:01.754Z,230
2016-04-28T05:05:01.710Z,240
2016-04-28T05:06:01.697Z,240
2016-04-28T05:07:01.684Z,250
2016-04-28T05:08:01.640Z,275
2016-04-28T05:09:01.456Z,300
2016-04-28T05:10:01.583Z,315
2016-04-28T05:11:01.553Z,315
2016-04-28T05:12:02.494Z,290
2016-04-28T05:13:01.545Z,280
2016-04-28T05:14:02.453Z,285
2016-04-28T05:15:01.439Z,295
2016-04-28T05:16:01.412Z,280
2016-04-28T05:17:01.399Z,265
2016-04-28T05:18:01.355Z,265
2016-04-28T05:19:01.341Z,290
2016-04-28T05:20:01.392Z,290
2016-04-28T05:21:01.284Z,290
2016-04-28T05:22:01.256Z,295
2016-04-28T05:23:01.227Z,305
2016-04-28T05:24:01.198Z,305
2016-04-28T05:25:01.185Z,310
2016-04-28T05:26:01.142Z,310
2016-04-28T05:27:02.019Z,305
2016-04-28T05:28:01.084Z,270
2016-04-28T05:29:01.072Z,240
2016-04-28T05:30:01.043Z,250
2016-04-28T05:31:01.015Z,245
2016-04-28T05:32:00.985Z,250
2016-04-28T05:33:00.958Z,255
2016-04-28T05:34:00.944Z,235
2016-04-28T05:35:00.901Z,215
2016-04-28T05:36:00.887Z,215
2016-04-28T05:37:00.842Z,205
2016-04-28T05:38:00.814Z,215
2016-04-28T05:39:00.787Z,230
2016-04-28T05:40:00.757Z,225
2016-04-28T05:41:00.728Z,250
2016-04-28T05:42:00.934Z,265
2016-04-28T05:43:00.687Z,240
2016-04-28T05:44:00.659Z,205
2016-04-28T05:45:00.631Z,205
2016-04-28T05:46:00.586Z,250
2016-04-28T05:47:00.572Z,250
2016-04-28T05:48:00.545Z,290
2016-04-28T05:49:00.531Z,325
2016-04-28T05:50:00.503Z,305
2016-04-28T05:51:00.458Z,335
2016-04-28T05:52:00.431Z,315
2016-04-28T05:53:00.402Z,280
2016-04-28T05:53:59.655Z,285
2016-04-28T05:55:00.344Z,280
2016-04-28T05:56:00.363Z,265
2016-04-28T05:57:01.085Z,285
2016-04-28T05:58:00.274Z,275
2016-04-28T05:59:00.262Z,255
2016-04-28T06:00:00.233Z,235
2016-04-28T06:01:00.194Z,245
2016-04-28T06:02:00.223Z,240
2016-04-28T06:03:00.235Z,245
2016-04-28T06:04:00.262Z,260
2016-04-28T06:05:00.243Z,270
2016-04-28T06:06:00.267Z,290
2016-04-28T06:07:00.268Z,285
2016-04-28T06:08:00.099Z,275
2016-04-28T06:09:00.226Z,265
2016-04-28T06:10:00.211Z,270
2016-04-28T06:11:00.212Z,270
2016-04-28T06:11:59.907Z,265
2016-04-28T06:13:00.149Z,270
2016-04-28T06:14:00.125Z,305
2016-04-28T06:15:00.118Z,335
2016-04-28T06:16:00.124Z,350
2016-04-28T06:17:00.067Z,375
2016-04-28T06:18:00.039Z,385
2016-04-28T06:19:00.013Z,410
2016-04-28T06:20:00.003Z,445
2016-04-28T06:21:00.038Z,475
2016-04-28T06:21:59.932Z,465
2016-04-28T06:22:59.904Z,455
2016-04-28T06:23:59.876Z,425
2016-04-28T06:24:59.864Z,430
2016-04-28T06:25:59.868Z,420
2016-04-28T06:27:00.011Z,415
2016-04-28T06:28:01.093Z,450
2016-04-28T06:28:59.751Z,490
2016-04-28T06:29:59.724Z,545
2016-04-28T06:30:59.696Z,655
2016-04-28T06:31:59.667Z,790
2016-04-28T06:32:59.639Z,645
2016-04-28T06:34:00.001Z,700
2016-04-28T06:34:59.597Z,785
2016-04-28T06:35:59.585Z,895
2016-04-28T06:36:59.540Z,1005
2016-04-28T06:37:59.511Z,1040
2016-04-28T06:38:59.498Z,1000
2016-04-28T06:39:59.470Z,955
2016-04-28T06:40:59.442Z,795
2016-04-28T06:41:59.412Z,705
2016-04-28T06:42:59.384Z,590
2016-04-28T06:43:59.356Z,520
2016-04-28T06:44:59.342Z,470
2016-04-28T06:45:59.314Z,425
2016-04-28T06:46:59.286Z,425
2016-04-28T06:47:59.273Z,430
2016-04-28T06:48:59.244Z,465
2016-04-28T06:49:59.059Z,500
2016-04-28T06:50:59.186Z,500
2016-04-28T06:51:58.440Z,490
2016-04-28T06:52:59.130Z,500
2016-04-28T06:53:59.133Z,505
2016-04-28T06:54:59.088Z,510
2016-04-28T06:55:59.060Z,535
2016-04-28T06:56:59.469Z,540
2016-04-28T06:57:59.018Z,610
2016-04-28T06:58:58.974Z,620
2016-04-28T06:59:58.960Z,605
2016-04-28T07:00:58.932Z,555
2016-04-28T07:01:58.905Z,575
2016-04-28T07:02:58.891Z,620
2016-04-28T07:03:58.128Z,670
2016-04-28T07:04:58.100Z,730
2016-04-28T07:05:58.805Z,695
2016-04-28T07:06:58.776Z,670
2016-04-28T07:07:58.748Z,695
2016-04-28T07:08:58.720Z,805
2016-04-28T07:09:58.706Z,1295
2016-04-28T07:10:58.679Z,1655
2016-04-28T07:11:58.915Z,1185
2016-04-28T07:13:00.465Z,1095
2016-04-28T07:13:58.593Z,1785
2016-04-28T07:14:58.564Z,1125
2016-04-28T07:15:58.582Z,1325
2016-04-28T07:16:58.538Z,925
2016-04-28T07:17:58.494Z,765
2016-04-28T07:18:58.481Z,740
2016-04-28T07:19:58.452Z,800
2016-04-28T07:20:58.439Z,740
2016-04-28T07:21:58.411Z,670
2016-04-28T07:22:58.477Z,600
2016-04-28T07:23:58.371Z,615
2016-04-28T07:24:58.342Z,500
2016-04-28T07:25:58.314Z,420
2016-04-28T07:26:58.004Z,385
2016-04-28T07:27:58.959Z,385
2016-04-28T07:28:58.242Z,430
2016-04-28T07:29:58.214Z,500
2016-04-28T07:30:58.202Z,530
2016-04-28T07:31:58.205Z,520
2016-04-28T07:32:58.145Z,515
2016-04-28T07:33:58.117Z,545
2016-04-28T07:34:58.213Z,580
2016-04-28T07:35:58.184Z,625
2016-04-28T07:36:58.108Z,615
2016-04-28T07:37:58.033Z,580
2016-04-28T07:38:58.004Z,615
2016-04-28T07:39:57.976Z,645
2016-04-28T07:40:57.963Z,725
2016-04-28T07:41:59.575Z,795
2016-04-28T07:42:57.827Z,740
2016-04-28T07:43:57.877Z,635
2016-04-28T07:44:58.255Z,585
2016-04-28T07:45:57.852Z,650
2016-04-28T07:46:57.824Z,775
2016-04-28T07:47:57.794Z,880
2016-04-28T07:48:57.765Z,1045
2016-04-28T07:49:57.737Z,1145
2016-04-28T07:50:57.724Z,1245
2016-04-28T07:51:57.679Z,1025
2016-04-28T07:52:57.667Z,920
2016-04-28T07:53:57.639Z,770
2016-04-28T07:54:57.626Z,885
2016-04-28T07:55:57.629Z,1150
2016-04-28T07:57:00.116Z,1260
2016-04-28T07:57:57.618Z,1215
2016-04-28T07:58:57.543Z,1220
2016-04-28T07:59:57.530Z,980
2016-04-28T08:00:57.486Z,935
2016-04-28T08:01:57.457Z,985
2016-04-28T08:02:57.459Z,1020
2016-04-28T08:03:57.416Z,1235
2016-04-28T08:04:57.386Z,1195
2016-04-28T08:05:58.686Z,1005
2016-04-28T08:06:58.720Z,1875
2016-04-28T08:07:57.813Z,2020
2016-04-28T08:08:57.878Z,2240
2016-04-28T08:09:57.271Z,2525
2016-04-28T08:10:57.259Z,1320
2016-04-28T08:11:57.589Z,1025
2016-04-28T08:12:57.029Z,980
2016-04-28T08:13:57.188Z,855
2016-04-28T08:14:57.160Z,780
2016-04-28T08:15:56.428Z,905
2016-04-28T08:16:57.353Z,1015
2016-04-28T08:17:57.121Z,1540
2016-04-28T08:18:57.093Z,2085
2016-04-28T08:19:57.080Z,905
2016-04-28T08:20:57.097Z,750
2016-04-28T08:21:57.053Z,645
2016-04-28T08:22:57.009Z,555
2016-04-28T08:23:57.012Z,505
2016-04-28T08:24:56.983Z,500
2016-04-28T08:25:56.939Z,490
2016-04-28T08:26:58.161Z,515
2016-04-28T08:27:57.258Z,530
2016-04-28T08:28:56.901Z,555
2016-04-28T08:29:56.857Z,595
2016-04-28T08:30:56.828Z,645
2016-04-28T08:31:56.830Z,2300
2016-04-28T08:32:56.802Z,2335
2016-04-28T08:33:56.883Z,2530
2016-04-28T08:34:56.745Z,2525
2016-04-28T08:35:56.732Z,2970
2016-04-28T08:36:56.719Z,2970
2016-04-28T08:37:56.721Z,1735
2016-04-28T08:38:56.677Z,2255
2016-04-28T08:39:56.648Z,1880
2016-04-28T08:40:56.637Z,800
2016-04-28T08:41:57.608Z,645
2016-04-28T08:42:57.313Z,545
2016-04-28T08:43:56.582Z,505
2016-04-28T08:44:56.568Z,500
2016-04-28T08:45:56.540Z,530
2016-04-28T08:46:56.528Z,585
2016-04-28T08:47:56.498Z,620
2016-04-28T08:48:56.486Z,645
2016-04-28T08:49:56.457Z,675
2016-04-28T08:50:56.429Z,705
2016-04-28T08:51:56.509Z,755
2016-04-28T08:52:56.497Z,785
2016-04-28T08:53:56.389Z,845
2016-04-28T08:54:56.377Z,920
2016-04-28T08:55:56.333Z,1035
2016-04-28T08:56:56.258Z,2905
2016-04-28T08:57:56.807Z,2855
2016-04-28T08:58:56.294Z,3015
2016-04-28T08:59:56.249Z,1375
2016-04-28T09:00:56.705Z,1345
2016-04-28T09:01:56.208Z,1910
2016-04-28T09:02:56.196Z,1800
2016-04-28T09:03:56.183Z,1215
2016-04-28T09:04:56.169Z,1320
2016-04-28T09:05:58.032Z,1710
2016-04-28T09:06:56.113Z,1410
2016-04-28T09:07:56.115Z,965
2016-04-28T09:08:56.087Z,780
2016-04-28T09:09:56.057Z,695
2016-04-28T09:10:57.967Z,625
2016-04-28T09:11:56.235Z,560
2016-04-28T09:12:58.504Z,485
2016-04-28T09:13:55.991Z,435
2016-04-28T09:14:55.978Z,405
2016-04-28T09:15:55.840Z,385
2016-04-28T09:16:55.936Z,370
2016-04-28T09:17:55.923Z,375
2016-04-28T09:18:55.879Z,415
2016-04-28T09:19:55.866Z,465
2016-04-28T09:20:56.275Z,495
2016-04-28T09:21:55.684Z,515
2016-04-28T09:22:55.811Z,535
2016-04-28T09:23:55.798Z,560
2016-04-28T09:24:55.770Z,600
2016-04-28T09:25:55.742Z,640
2016-04-28T09:26:59.135Z,655
2016-04-28T09:27:56.466Z,675
2016-04-28T09:28:55.686Z,695
2016-04-28T09:29:55.658Z,740
2016-04-28T09:30:55.629Z,795
2016-04-28T09:31:57.476Z,870
2016-04-28T09:32:55.573Z,930
2016-04-28T09:33:55.560Z,910
2016-04-28T09:34:55.531Z,740
2016-04-28T09:35:55.502Z,720
2016-04-28T09:36:55.537Z,735
2016-04-28T09:37:55.477Z,760
2016-04-28T09:38:55.448Z,775
2016-04-28T09:39:55.420Z,770
2016-04-28T09:40:55.406Z,760
2016-04-28T09:41:57.268Z,760
2016-04-28T09:42:56.694Z,780
2016-04-28T09:43:55.337Z,795
2016-04-28T09:44:55.309Z,765
2016-04-28T09:45:55.389Z,705
2016-04-28T09:46:55.267Z,680
2016-04-28T09:47:55.253Z,730
2016-04-28T09:48:55.350Z,615
2016-04-28T09:49:55.197Z,575
2016-04-28T09:50:55.168Z,515
2016-04-28T09:51:55.155Z,490
2016-04-28T09:52:56.939Z,520
2016-04-28T09:53:55.114Z,605
2016-04-28T09:54:55.116Z,730
2016-04-28T09:55:55.072Z,850
2016-04-28T09:56:56.105Z,925
2016-04-28T09:57:56.030Z,965
2016-04-28T09:58:55.017Z,1000
2016-04-28T09:59:54.974Z,1025
2016-04-28T10:00:54.961Z,1005
2016-04-28T10:01:54.932Z,990
2016-04-28T10:02:54.763Z,925
2016-04-28T10:03:54.875Z,780
2016-04-28T10:04:54.862Z,680
2016-04-28T10:05:54.849Z,535
2016-04-28T10:06:54.821Z,430
2016-04-28T10:07:58.121Z,455
2016-04-28T10:08:54.764Z,525
2016-04-28T10:09:54.751Z,600
2016-04-28T10:10:54.722Z,715
2016-04-28T10:11:54.710Z,810
2016-04-28T10:12:57.695Z,900
2016-04-28T10:13:54.651Z,1005
2016-04-28T10:14:54.624Z,1130
2016-04-28T10:15:55.048Z,1130
2016-04-28T10:16:54.644Z,1080
2016-04-28T10:17:54.787Z,1005
2016-04-28T10:18:54.525Z,960
2016-04-28T10:19:54.511Z,925
2016-04-28T10:20:54.515Z,900
2016-04-28T10:21:54.501Z,900
2016-04-28T10:23:00.582Z,915
2016-04-28T10:23:54.413Z,945
2016-04-28T10:24:54.401Z,1000
2016-04-28T10:25:54.356Z,1050
2016-04-28T10:26:54.812Z,1130
2016-04-28T10:27:54.611Z,1185
2016-04-28T10:28:54.317Z,1275
2016-04-28T10:29:54.258Z,1375
2016-04-28T10:30:54.291Z,1425
2016-04-28T10:31:54.231Z,1480
2016-04-28T10:32:54.234Z,1490
2016-04-28T10:33:54.221Z,1465
2016-04-28T10:34:54.146Z,1365
2016-04-28T10:35:54.149Z,1310
2016-04-28T10:36:54.120Z,1315
2016-04-28T10:37:54.108Z,1175
2016-04-28T10:38:54.062Z,1000
2016-04-28T10:39:54.049Z,910
2016-04-28T10:40:54.037Z,870
2016-04-28T10:41:55.008Z,850
2016-04-28T10:42:56.354Z,870
2016-04-28T10:43:53.951Z,915
2016-04-28T10:44:53.938Z,950
2016-04-28T10:45:53.910Z,990
2016-04-28T10:46:53.960Z,995
2016-04-28T10:47:53.868Z,1000
2016-04-28T10:48:53.840Z,1005
2016-04-28T10:49:53.859Z,995
2016-04-28T10:50:54.157Z,975
2016-04-28T10:51:53.895Z,960
2016-04-28T10:52:53.772Z,995
2016-04-28T10:53:53.994Z,960
2016-04-28T10:54:53.715Z,1005
2016-04-28T10:55:53.703Z,980
2016-04-28T10:56:57.767Z,850
2016-04-28T10:57:55.364Z,725
2016-04-28T10:58:53.633Z,650
2016-04-28T10:59:53.603Z,605
2016-04-28T11:00:53.575Z,600
2016-04-28T11:01:53.562Z,570
2016-04-28T11:02:53.550Z,530
2016-04-28T11:03:53.521Z,485
2016-04-28T11:04:53.508Z,460
2016-04-28T11:05:53.901Z,450
2016-04-28T11:06:53.466Z,440
2016-04-28T11:07:53.438Z,430
2016-04-28T11:08:53.424Z,415
2016-04-28T11:09:53.380Z,430
2016-04-28T11:10:53.368Z,470
2016-04-28T11:11:54.183Z,540
2016-04-28T11:12:54.420Z,610
2016-04-28T11:13:53.298Z,660
2016-04-28T11:14:53.269Z,695
2016-04-28T11:15:53.271Z,700
2016-04-28T11:16:53.243Z,695
2016-04-28T11:17:53.215Z,680
2016-04-28T11:18:53.186Z,700
2016-04-28T11:19:53.173Z,745
2016-04-28T11:20:53.138Z,820
2016-04-28T11:21:53.126Z,915
2016-04-28T11:22:53.098Z,1005
2016-04-28T11:23:53.053Z,1100
2016-04-28T11:24:53.056Z,1190
2016-04-28T11:25:53.027Z,1270
2016-04-28T11:26:53.014Z,1305
2016-04-28T11:27:53.814Z,1295
2016-04-28T11:28:52.957Z,1290
2016-04-28T11:29:52.928Z,1280
2016-04-28T11:30:52.899Z,1285
2016-04-28T11:31:52.903Z,1365
2016-04-28T11:32:52.891Z,1320
2016-04-28T11:33:52.861Z,1220
2016-04-28T11:34:52.816Z,1170
2016-04-28T11:35:52.804Z,1130
2016-04-28T11:36:52.775Z,1100
2016-04-28T11:37:52.746Z,1085
2016-04-28T11:38:52.749Z,1090
2016-04-28T11:39:52.721Z,1105
2016-04-28T11:40:53.068Z,1100
2016-04-28T11:41:53.070Z,1080
2016-04-28T11:42:52.682Z,1065
2016-04-28T11:43:52.701Z,1045
2016-04-28T11:44:53.235Z,1035
2016-04-28T11:45:53.128Z,1025
2016-04-28T11:46:52.318Z,1035
2016-04-28T11:47:52.540Z,1050
2016-04-28T11:48:52.558Z,1080
2016-04-28T11:49:52.498Z,1125
2016-04-28T11:50:52.735Z,1140
2016-04-28T11:51:52.457Z,1155
2016-04-28T11:52:52.444Z,1185
2016-04-28T11:53:52.414Z,1255
2016-04-28T11:54:52.386Z,1365
2016-04-28T11:55:52.358Z,1410
2016-04-28T11:56:52.345Z,1540
2016-04-28T11:57:51.879Z,1555
2016-04-28T11:58:52.366Z,1360
2016-04-28T11:59:52.275Z,1130
2016-04-28T12:00:52.247Z,980
2016-04-28T12:01:52.233Z,990
2016-04-28T12:02:52.392Z,1020
2016-04-28T12:03:52.191Z,1030
2016-04-28T12:04:52.163Z,1045
2016-04-28T12:05:52.244Z,1055
2016-04-28T12:06:52.122Z,1080
2016-04-28T12:07:52.093Z,1100
2016-04-28T12:08:52.080Z,1130
2016-04-28T12:09:52.067Z,1170
2016-04-28T12:10:52.038Z,1210
2016-04-28T12:11:52.041Z,1200
2016-04-28T12:12:53.216Z,1115
2016-04-28T12:13:51.968Z,1035
2016-04-28T12:14:51.956Z,970
2016-04-28T12:15:51.927Z,905
2016-04-28T12:16:51.977Z,845
2016-04-28T12:17:52.182Z,810
2016-04-28T12:18:51.873Z,755
2016-04-28T12:19:51.860Z,720
2016-04-28T12:20:51.848Z,700
2016-04-28T12:21:51.803Z,680
2016-04-28T12:22:51.790Z,665
2016-04-28T12:23:51.808Z,650
2016-04-28T12:24:51.730Z,640
2016-04-28T12:25:51.717Z,620
2016-04-28T12:26:51.703Z,605
2016-04-28T12:27:51.738Z,595
2016-04-28T12:28:51.647Z,585
2016-04-28T12:29:51.650Z,580
2016-04-28T12:30:51.606Z,580
2016-04-28T12:31:51.592Z,575
2016-04-28T12:32:51.564Z,570
2016-04-28T12:33:51.645Z,565
2016-04-28T12:34:51.523Z,565
2016-04-28T12:35:51.509Z,565
2016-04-28T12:36:51.465Z,565
2016-04-28T12:37:51.468Z,565
2016-04-28T12:38:51.486Z,570
2016-04-28T12:39:51.427Z,575
2016-04-28T12:40:51.399Z,580
2016-04-28T12:41:51.369Z,585
2016-04-28T12:42:53.610Z,590
2016-04-28T12:43:51.407Z,595
2016-04-28T12:44:51.316Z,600
2016-04-28T12:45:51.270Z,605
2016-04-28T12:46:51.257Z,620
2016-04-28T12:47:51.229Z,625
2016-04-28T12:48:51.217Z,630
2016-04-28T12:49:51.187Z,640
2016-04-28T12:50:51.175Z,655
2016-04-28T12:51:51.162Z,675
2016-04-28T12:52:51.118Z,705
2016-04-28T12:53:51.089Z,725
2016-04-28T12:54:51.170Z,715
2016-04-28T12:55:51.095Z,690
2016-04-28T12:56:51.034Z,675
2016-04-28T12:57:50.881Z,735
2016-04-28T12:58:50.993Z,795
2016-04-28T12:59:50.964Z,755
2016-04-28T13:00:50.936Z,655
2016-04-28T13:01:50.939Z,560
2016-04-28T13:02:50.895Z,590
2016-04-28T13:03:50.882Z,615
2016-04-28T13:04:50.853Z,635
2016-04-28T13:05:50.841Z,650
2016-04-28T13:06:50.796Z,690
2016-04-28T13:07:50.799Z,705
2016-04-28T13:08:50.771Z,675
2016-04-28T13:09:50.805Z,665
2016-04-28T13:10:50.713Z,625
2016-04-28T13:11:50.857Z,590
2016-04-28T13:12:51.516Z,630
2016-04-28T13:13:50.659Z,620
2016-04-28T13:14:50.646Z,635
2016-04-28T13:15:50.601Z,630
2016-04-28T13:16:50.635Z,665
2016-04-28T13:17:50.576Z,660
2016-04-28T13:18:50.548Z,660
2016-04-28T13:19:50.534Z,680
2016-04-28T13:20:50.521Z,735
2016-04-28T13:21:50.492Z,800
2016-04-28T13:22:50.465Z,1010
2016-04-28T13:23:50.451Z,1260
2016-04-28T13:24:50.439Z,1370
2016-04-28T13:25:50.519Z,1415
2016-04-28T13:26:50.381Z,1445
2016-04-28T13:27:51.009Z,1470
2016-04-28T13:28:50.339Z,1350
2016-04-28T13:29:50.328Z,1280
2016-04-28T13:30:50.314Z,1145
2016-04-28T13:31:50.301Z,1155
2016-04-28T13:32:50.256Z,1130
2016-04-28T13:33:50.291Z,1165
2016-04-28T13:34:50.230Z,1260
2016-04-28T13:35:50.281Z,1355
2016-04-28T13:36:50.205Z,1455
2016-04-28T13:37:50.177Z,1585
2016-04-28T13:38:50.147Z,1615
2016-04-28T13:39:50.197Z,1540
2016-04-28T13:40:50.107Z,1380
2016-04-28T13:41:50.141Z,1260
2016-04-28T13:42:51.799Z,1295
2016-04-28T13:43:50.068Z,1330
2016-04-28T13:44:50.054Z,1135
2016-04-28T13:45:50.026Z,980
2016-04-28T13:46:50.013Z,870
2016-04-28T13:47:50.063Z,825
2016-04-28T13:48:49.987Z,805
2016-04-28T13:49:50.052Z,790
2016-04-28T13:50:49.929Z,775
2016-04-28T13:51:49.917Z,765
2016-04-28T13:52:49.967Z,740
2016-04-28T13:53:49.891Z,715
2016-04-28T13:54:49.879Z,690
2016-04-28T13:55:49.850Z,660
2016-04-28T13:56:49.868Z,635
2016-04-28T13:57:50.370Z,620
2016-04-28T13:58:49.781Z,605